Arcata, California
Current Conditions -  °F | °C
As of 6:33 AM on Saturday 22 Nov 2014 (Local Time) from KACV Reporting Station
Light Rain Light Rain  
Wind Chill: 58°   Ceiling: 200
Heat Index: 58°   Visibility: 2.5mi
Dew Point: 56°   Wind: 9mph
Humidity: 93%   Direction: 280°W
Pressure: 29.97"   Gusts: NA
Location:  40.87°N, 124.08°W
Report Text: KACV 221433Z AUTO 28008KT 2 1/2SM R32/5500VP6000FT -RA BR BKN002 OVC010 14/13 A2997 RMK AO2 VIS 3/4V5 RAE03B14 P0017 T01440133
Loading
Personal Weather Stations






























Interactive Weather Map New forecast layout! Learn more

10-Day Weather Forecast

Advertisements
Track Severe Weather on mobile